Time;durP1;ratioP1;P1;durP2;ratioP2;P2;SDS_P1;SDS_P2;PMS_P1;PMS_P2;Temp;Humidity;BMP_temperature;BMP_pressure;BME280_temperature;BME280_humidity;BME280_pressure;Samples;Min_cycle;Max_cycle;Signal;HPM_P1;HPM_P2
2022/04/06 00:00:42;;;;;;;5.20;4.22;;;;;;;;;;5004306;28;20041;-58
2022/04/06 00:03:08;;;;;;;5.93;3.83;;;;;;;;;;4998109;28;20030;-59
2022/04/06 00:05:34;;;;;;;5.97;3.97;;;;;;;;;;4995453;28;20072;-58
2022/04/06 00:07:59;;;;;;;6.70;4.00;;;;;;;;;;4998966;28;20089;-58
2022/04/06 00:10:25;;;;;;;5.68;4.07;;;;;;;;;;4996326;28;20026;-57
2022/04/06 00:12:51;;;;;;;6.88;4.07;;;;;;;;;;4998090;28;20034;-59
2022/04/06 00:15:16;;;;;;;7.53;4.57;;;;;;;;;;5000217;28;20041;-58
2022/04/06 00:17:42;;;;;;;6.20;4.38;;;;;;;;;;5007059;28;20057;-59
2022/04/06 00:20:09;;;;;;;7.40;4.10;;;;;;;;;;4997509;28;20018;-59
2022/04/06 00:22:34;;;;;;;5.38;3.85;;;;;;;;;;4998173;28;20030;-60
2022/04/06 00:24:59;;;;;;;6.28;3.83;;;;;;;;;;5000669;28;20400;-58
2022/04/06 00:27:25;;;;;;;4.93;3.60;;;;;;;;;;4999858;28;20760;-59
2022/04/06 00:29:51;;;;;;;5.13;3.85;;;;;;;;;;5004051;28;20041;-59
2022/04/06 00:32:17;;;;;;;4.63;3.88;;;;;;;;;;4997767;28;20370;-59
2022/04/06 00:37:26;;;;;;;8.23;4.75;;;;;;;;;;5005363;28;20045;-59
2022/04/06 00:39:51;;;;;;;16.90;6.07;;;;;;;;;;4998479;28;20026;-59
2022/04/06 00:42:18;;;;;;;13.15;5.85;;;;;;;;;;4999610;28;20507;-59
2022/04/06 00:44:44;;;;;;;12.93;5.28;;;;;;;;;;5009820;28;20140;-59
2022/04/06 00:47:10;;;;;;;11.90;5.20;;;;;;;;;;4996864;28;20552;-58
2022/04/06 00:49:35;;;;;;;8.73;4.30;;;;;;;;;;5006390;28;20112;-58
2022/04/06 00:52:04;;;;;;;5.75;4.13;;;;;;;;;;5008572;28;20116;-58
2022/04/06 00:54:30;;;;;;;5.10;3.60;;;;;;;;;;4998430;28;20480;-58
2022/04/06 00:56:56;;;;;;;6.75;4.10;;;;;;;;;;5003956;28;20109;-58
2022/04/06 00:59:22;;;;;;;6.35;4.10;;;;;;;;;;5004709;28;20471;-57
2022/04/06 01:01:50;;;;;;;5.28;4.00;;;;;;;;;;5002409;28;20033;-57
2022/04/06 01:04:16;;;;;;;4.97;3.65;;;;;;;;;;4981871;28;20030;-57
2022/04/06 01:06:44;;;;;;;4.53;3.50;;;;;;;;;;5005996;28;20472;-60
2022/04/06 01:09:10;;;;;;;4.63;3.70;;;;;;;;;;4998795;28;20043;-58
2022/04/06 01:11:35;;;;;;;5.30;4.13;;;;;;;;;;4989277;28;20030;-58
2022/04/06 01:14:02;;;;;;;6.18;3.75;;;;;;;;;;5003404;28;20549;-59
2022/04/06 01:16:28;;;;;;;6.10;4.28;;;;;;;;;;4984377;28;20030;-59
2022/04/06 01:18:53;;;;;;;5.32;3.97;;;;;;;;;;5002952;28;20033;-58
2022/04/06 01:21:20;;;;;;;5.35;4.07;;;;;;;;;;5001391;28;20025;-58
2022/04/06 01:23:46;;;;;;;5.75;3.80;;;;;;;;;;4995644;28;20089;-59
2022/04/06 01:26:13;;;;;;;7.72;3.55;;;;;;;;;;5004906;28;20034;-63
2022/04/06 01:28:39;;;;;;;4.63;3.42;;;;;;;;;;4995385;28;20033;-59
2022/04/06 01:31:05;;;;;;;6.10;3.83;;;;;;;;;;5000623;28;20161;-58
2022/04/06 01:33:31;;;;;;;6.47;4.78;;;;;;;;;;4999965;28;20101;-57
2022/04/06 01:35:58;;;;;;;5.55;4.10;;;;;;;;;;4996285;28;20042;-58
2022/04/06 01:38:24;;;;;;;7.60;4.30;;;;;;;;;;5002070;28;20026;-58
2022/04/06 01:40:50;;;;;;;5.55;4.00;;;;;;;;;;5001371;28;20026;-58
2022/04/06 01:43:16;;;;;;;7.70;4.18;;;;;;;;;;5006084;28;20121;-59
2022/04/06 01:45:41;;;;;;;5.00;3.70;;;;;;;;;;4995084;28;20189;-58
2022/04/06 01:48:07;;;;;;;4.72;3.75;;;;;;;;;;5000654;28;20037;-58
2022/04/06 01:53:16;;;;;;;5.72;4.60;;;;;;;;;;5000162;28;20408;-59
2022/04/06 01:55:42;;;;;;;5.75;3.90;;;;;;;;;;4994862;28;20022;-59
2022/04/06 01:58:08;;;;;;;7.32;4.45;;;;;;;;;;5003949;28;20033;-59
2022/04/06 02:00:33;;;;;;;4.57;3.38;;;;;;;;;;5003009;28;20030;-58
2022/04/06 02:03:00;;;;;;;4.80;3.80;;;;;;;;;;5002690;28;20040;-58
2022/04/06 02:05:31;;;;;;;6.18;4.10;;;;;;;;;;4987494;28;20380;-58
2022/04/06 02:07:57;;;;;;;6.25;3.97;;;;;;;;;;4999110;28;20092;-57
2022/04/06 02:10:23;;;;;;;4.95;3.40;;;;;;;;;;5006855;28;20442;-58
2022/04/06 02:12:49;;;;;;;5.38;3.72;;;;;;;;;;5001092;28;20038;-58
2022/04/06 02:15:15;;;;;;;4.45;3.47;;;;;;;;;;4994435;28;20041;-58
2022/04/06 02:17:42;;;;;;;5.28;3.60;;;;;;;;;;4987172;28;20030;-58
2022/04/06 02:20:08;;;;;;;4.63;3.10;;;;;;;;;;4995753;28;20471;-58
2022/04/06 02:22:33;;;;;;;4.60;3.25;;;;;;;;;;4992387;28;20124;-58
2022/04/06 02:24:58;;;;;;;4.20;3.25;;;;;;;;;;4996061;28;20372;-57
2022/04/06 02:27:24;;;;;;;7.05;3.33;;;;;;;;;;4994535;28;20415;-58
2022/04/06 02:29:49;;;;;;;4.55;3.40;;;;;;;;;;4997656;28;20038;-58
2022/04/06 02:32:15;;;;;;;4.97;3.58;;;;;;;;;;4993388;28;20030;-59
2022/04/06 02:34:40;;;;;;;4.43;3.10;;;;;;;;;;4998981;28;20025;-58
2022/04/06 02:37:08;;;;;;;3.63;3.05;;;;;;;;;;4999457;28;20147;-58
2022/04/06 02:39:33;;;;;;;6.63;3.95;;;;;;;;;;5000623;28;20121;-58
2022/04/06 02:41:59;;;;;;;8.10;4.20;;;;;;;;;;4992835;28;20575;-59
2022/04/06 02:44:24;;;;;;;9.15;4.80;;;;;;;;;;5006209;28;20030;-58
2022/04/06 02:46:50;;;;;;;7.57;4.72;;;;;;;;;;5000340;28;20483;-58
2022/04/06 02:49:17;;;;;;;8.07;5.32;;;;;;;;;;5000909;28;20057;-57
2022/04/06 02:51:43;;;;;;;12.25;5.82;;;;;;;;;;5000001;28;20030;-58
2022/04/06 02:54:08;;;;;;;6.95;4.95;;;;;;;;;;4996902;28;20088;-58
2022/04/06 02:56:33;;;;;;;7.60;4.82;;;;;;;;;;5004001;28;20030;-59
2022/04/06 02:59:01;;;;;;;8.15;5.30;;;;;;;;;;5001926;28;20397;-59
2022/04/06 03:01:27;;;;;;;6.53;4.95;;;;;;;;;;4994054;28;20033;-59
2022/04/06 03:03:52;;;;;;;9.70;5.47;;;;;;;;;;5005139;28;20034;-58
2022/04/06 03:06:18;;;;;;;8.50;5.75;;;;;;;;;;5005373;28;20041;-58
2022/04/06 03:08:44;;;;;;;9.60;6.22;;;;;;;;;;4997236;28;20042;-57
2022/04/06 03:11:09;;;;;;;10.35;6.53;;;;;;;;;;5002267;28;20033;-58
2022/04/06 03:13:35;;;;;;;8.98;5.88;;;;;;;;;;5001569;28;20040;-58
2022/04/06 03:16:00;;;;;;;7.03;5.28;;;;;;;;;;5002473;28;20038;-58
2022/04/06 03:18:26;;;;;;;10.32;6.03;;;;;;;;;;5000852;28;20033;-59
2022/04/06 03:20:51;;;;;;;8.10;5.80;;;;;;;;;;4999035;28;20057;-58
2022/04/06 03:23:17;;;;;;;9.85;6.55;;;;;;;;;;4996434;28;20134;-59
2022/04/06 03:25:43;;;;;;;7.63;5.68;;;;;;;;;;4995347;28;20480;-58
2022/04/06 03:28:09;;;;;;;10.05;6.38;;;;;;;;;;5001471;28;20041;-58
2022/04/06 03:30:35;;;;;;;10.80;6.95;;;;;;;;;;4999222;28;20018;-58
2022/04/06 03:33:01;;;;;;;11.18;7.90;;;;;;;;;;5002110;28;20026;-58
2022/04/06 03:35:26;;;;;;;11.00;6.80;;;;;;;;;;4995944;28;20022;-58
2022/04/06 03:37:52;;;;;;;9.45;6.82;;;;;;;;;;5004330;28;20033;-60
2022/04/06 03:40:18;;;;;;;10.55;7.15;;;;;;;;;;5006414;28;20486;-58
2022/04/06 03:42:43;;;;;;;9.40;6.75;;;;;;;;;;5007889;28;20366;-58
2022/04/06 03:45:09;;;;;;;9.75;6.38;;;;;;;;;;5008911;28;20030;-58
2022/04/06 03:47:36;;;;;;;10.70;6.90;;;;;;;;;;5009631;28;20022;-59
2022/04/06 03:50:07;;;;;;;12.23;6.60;;;;;;;;;;5005317;28;20089;-59
2022/04/06 03:52:32;;;;;;;10.13;6.65;;;;;;;;;;5002670;28;20113;-59
2022/04/06 03:54:58;;;;;;;10.27;6.72;;;;;;;;;;4997554;28;20113;-58
2022/04/06 03:57:25;;;;;;;9.70;6.95;;;;;;;;;;5003444;28;20038;-59
2022/04/06 03:59:51;;;;;;;10.35;7.13;;;;;;;;;;5006493;28;20040;-58
2022/04/06 04:02:17;;;;;;;9.35;6.65;;;;;;;;;;4998377;28;20034;-58
2022/04/06 04:04:42;;;;;;;11.82;7.40;;;;;;;;;;4988367;28;20036;-58
2022/04/06 04:07:08;;;;;;;11.88;7.50;;;;;;;;;;5006067;28;20526;-59
2022/04/06 04:09:35;;;;;;;10.00;6.43;;;;;;;;;;5004741;28;20506;-58
2022/04/06 04:12:02;;;;;;;10.63;7.13;;;;;;;;;;5007610;28;20026;-59
2022/04/06 04:14:27;;;;;;;11.93;7.10;;;;;;;;;;5000869;28;20023;-59
2022/04/06 04:16:53;;;;;;;11.63;7.40;;;;;;;;;;4998175;28;20037;-58
2022/04/06 04:19:19;;;;;;;11.43;7.93;;;;;;;;;;4995425;28;20034;-59
2022/04/06 04:21:45;;;;;;;10.07;7.20;;;;;;;;;;4999415;28;20045;-58
2022/04/06 04:24:10;;;;;;;11.98;7.20;;;;;;;;;;4998403;28;20578;-58
2022/04/06 04:26:38;;;;;;;11.10;7.55;;;;;;;;;;5005715;28;20045;-60
2022/04/06 04:29:05;;;;;;;11.90;7.38;;;;;;;;;;4999620;28;20070;-58
2022/04/06 04:31:30;;;;;;;12.98;7.85;;;;;;;;;;4998852;28;20077;-59
2022/04/06 04:33:56;;;;;;;10.73;7.18;;;;;;;;;;4995684;28;20109;-59
2022/04/06 04:36:22;;;;;;;8.65;6.38;;;;;;;;;;4998558;28;20550;-59
2022/04/06 04:38:47;;;;;;;12.43;7.05;;;;;;;;;;4991799;28;20165;-59
2022/04/06 04:41:13;;;;;;;12.48;7.35;;;;;;;;;;4996433;28;20125;-58
2022/04/06 04:43:39;;;;;;;11.52;7.72;;;;;;;;;;5005442;28;20029;-58
2022/04/06 04:46:04;;;;;;;12.23;7.82;;;;;;;;;;5006589;28;20037;-58
2022/04/06 04:48:30;;;;;;;13.23;8.20;;;;;;;;;;5003401;28;20038;-58
2022/04/06 04:50:56;;;;;;;12.80;7.32;;;;;;;;;;4993843;28;20030;-58
2022/04/06 04:53:22;;;;;;;12.48;7.95;;;;;;;;;;5008156;28;20021;-59
2022/04/06 04:55:47;;;;;;;11.65;7.35;;;;;;;;;;5002387;28;20052;-58
2022/04/06 04:58:12;;;;;;;19.33;9.95;;;;;;;;;;5004128;28;20049;-59
2022/04/06 05:00:38;;;;;;;16.58;9.30;;;;;;;;;;5005457;28;20034;-59
2022/04/06 05:03:03;;;;;;;10.07;7.05;;;;;;;;;;5003449;28;20064;-58
2022/04/06 05:05:29;;;;;;;11.52;7.32;;;;;;;;;;5002744;28;20037;-60
2022/04/06 05:07:58;;;;;;;11.70;7.20;;;;;;;;;;4983892;28;20034;-60
2022/04/06 05:10:24;;;;;;;8.93;6.50;;;;;;;;;;5001134;28;20026;-61
2022/04/06 05:12:49;;;;;;;10.05;6.93;;;;;;;;;;4999274;28;20053;-61
2022/04/06 05:15:15;;;;;;;12.15;7.38;;;;;;;;;;5005825;28;20026;-60
2022/04/06 05:17:40;;;;;;;12.30;7.32;;;;;;;;;;5001939;28;20026;-61
2022/04/06 05:20:07;;;;;;;12.65;7.90;;;;;;;;;;5003021;28;20084;-60
2022/04/06 05:22:33;;;;;;;12.73;6.88;;;;;;;;;;4995449;28;20329;-59
2022/04/06 05:25:00;;;;;;;8.80;6.38;;;;;;;;;;5003000;28;20044;-61
2022/04/06 05:27:26;;;;;;;8.32;6.30;;;;;;;;;;4998320;28;20033;-60
2022/04/06 05:29:51;;;;;;;11.48;6.82;;;;;;;;;;4992870;28;20030;-61
2022/04/06 05:32:16;;;;;;;14.13;7.13;;;;;;;;;;4998813;28;20038;-62
2022/04/06 05:34:42;;;;;;;10.52;6.43;;;;;;;;;;4992740;28;20476;-61
2022/04/06 05:37:07;;;;;;;10.15;7.00;;;;;;;;;;5000067;28;20092;-61
2022/04/06 05:39:32;;;;;;;8.48;6.25;;;;;;;;;;4990656;28;20084;-61
2022/04/06 05:41:58;;;;;;;8.27;5.72;;;;;;;;;;4995951;28;20353;-60
2022/04/06 05:44:23;;;;;;;10.80;6.72;;;;;;;;;;5004749;28;20025;-59
2022/04/06 05:46:49;;;;;;;10.65;6.63;;;;;;;;;;5000342;28;20065;-60
2022/04/06 05:49:14;;;;;;;9.98;6.10;;;;;;;;;;4997020;28;20033;-55
2022/04/06 05:51:40;;;;;;;11.32;6.07;;;;;;;;;;4997905;28;20121;-56
2022/04/06 05:54:05;;;;;;;9.55;5.88;;;;;;;;;;4997838;28;20026;-60
2022/04/06 05:56:31;;;;;;;8.60;6.00;;;;;;;;;;5003039;28;20488;-60
2022/04/06 05:58:57;;;;;;;8.82;6.50;;;;;;;;;;4995389;28;20528;-61
2022/04/06 06:01:22;;;;;;;7.35;5.30;;;;;;;;;;4988044;28;20030;-61
2022/04/06 06:03:48;;;;;;;11.48;4.60;;;;;;;;;;4999728;28;20037;-60
2022/04/06 06:06:14;;;;;;;9.50;5.70;;;;;;;;;;5000973;28;20041;-60
2022/04/06 06:08:40;;;;;;;6.63;5.10;;;;;;;;;;4991099;28;20026;-59
2022/04/06 06:11:05;;;;;;;10.52;6.38;;;;;;;;;;4986440;28;20076;-59
2022/04/06 06:13:32;;;;;;;8.80;4.80;;;;;;;;;;5002235;28;20030;-59
2022/04/06 06:15:58;;;;;;;5.72;4.50;;;;;;;;;;4991945;28;20049;-60
2022/04/06 06:18:25;;;;;;;7.22;4.70;;;;;;;;;;4990506;28;20065;-60
2022/04/06 06:20:50;;;;;;;7.10;4.30;;;;;;;;;;4992007;28;20104;-61
2022/04/06 06:23:16;;;;;;;7.55;4.82;;;;;;;;;;4998118;28;20022;-61
2022/04/06 06:25:41;;;;;;;6.68;4.93;;;;;;;;;;4996162;28;20404;-61
2022/04/06 06:28:08;;;;;;;6.15;4.40;;;;;;;;;;4999955;28;20033;-59
2022/04/06 06:30:33;;;;;;;5.43;4.35;;;;;;;;;;4993429;28;20026;-60
2022/04/06 06:32:59;;;;;;;9.63;4.45;;;;;;;;;;4994645;28;20045;-61
2022/04/06 06:35:25;;;;;;;5.78;4.40;;;;;;;;;;4990970;28;20026;-60
2022/04/06 06:37:52;;;;;;;7.97;4.63;;;;;;;;;;4987677;28;20148;-60
2022/04/06 06:40:19;;;;;;;6.45;4.53;;;;;;;;;;5003123;28;20044;-60
2022/04/06 06:42:45;;;;;;;4.50;3.45;;;;;;;;;;4999337;28;20036;-60
2022/04/06 06:45:11;;;;;;;5.30;3.83;;;;;;;;;;4998469;28;20205;-60
2022/04/06 06:47:40;;;;;;;5.78;3.58;;;;;;;;;;5000818;28;20053;-59
2022/04/06 06:50:06;;;;;;;5.72;3.70;;;;;;;;;;4992737;28;20030;-60
2022/04/06 06:52:34;;;;;;;8.32;3.85;;;;;;;;;;4997493;28;20072;-61
2022/04/06 06:55:03;;;;;;;5.60;3.97;;;;;;;;;;4996940;28;20065;-61
2022/04/06 06:57:29;;;;;;;6.75;3.95;;;;;;;;;;4998731;28;20057;-60
2022/04/06 06:59:55;;;;;;;5.70;3.80;;;;;;;;;;4993861;28;20303;-64
2022/04/06 07:02:20;;;;;;;8.25;4.28;;;;;;;;;;4999064;28;20095;-60
2022/04/06 07:04:46;;;;;;;5.53;3.58;;;;;;;;;;4998679;28;20217;-61
2022/04/06 07:07:12;;;;;;;9.75;5.38;;;;;;;;;;5006599;28;20054;-60
2022/04/06 07:09:37;;;;;;;8.00;3.92;;;;;;;;;;5002796;28;20509;-60
2022/04/06 07:12:03;;;;;;;3.92;3.10;;;;;;;;;;4999954;28;20090;-60
2022/04/06 07:14:29;;;;;;;4.70;3.30;;;;;;;;;;5008561;28;20026;-61
2022/04/06 07:16:54;;;;;;;5.45;2.97;;;;;;;;;;5000115;28;20117;-60
2022/04/06 07:19:20;;;;;;;3.78;2.80;;;;;;;;;;4993845;28;20064;-61
2022/04/06 07:21:46;;;;;;;2.85;2.40;;;;;;;;;;4992044;28;20085;-61
2022/04/06 07:24:11;;;;;;;5.57;3.40;;;;;;;;;;4995880;28;20030;-60
2022/04/06 07:26:37;;;;;;;4.78;2.63;;;;;;;;;;4993268;28;20052;-60
2022/04/06 07:29:02;;;;;;;3.17;2.70;;;;;;;;;;4998757;28;20041;-60
2022/04/06 07:31:28;;;;;;;4.88;2.75;;;;;;;;;;4996145;28;20037;-61
2022/04/06 07:33:53;;;;;;;5.38;2.85;;;;;;;;;;5004850;28;20030;-60
2022/04/06 07:36:19;;;;;;;4.78;2.22;;;;;;;;;;5006343;28;20028;-60
2022/04/06 07:38:44;;;;;;;4.53;2.10;;;;;;;;;;5004540;28;20240;-61
2022/04/06 07:41:09;;;;;;;3.42;2.30;;;;;;;;;;5009153;28;20430;-61
2022/04/06 07:43:35;;;;;;;2.78;1.95;;;;;;;;;;5009947;28;20025;-60
2022/04/06 07:46:00;;;;;;;3.60;2.47;;;;;;;;;;5007802;28;20472;-60
2022/04/06 07:48:27;;;;;;;2.58;2.00;;;;;;;;;;5005560;28;20026;-59
2022/04/06 07:50:54;;;;;;;2.45;1.95;;;;;;;;;;5006273;28;20029;-60
2022/04/06 07:53:20;;;;;;;3.22;2.00;;;;;;;;;;5008358;28;20021;-63
2022/04/06 07:55:47;;;;;;;3.28;1.98;;;;;;;;;;5006409;28;20395;-61
2022/04/06 07:58:13;;;;;;;1.88;1.60;;;;;;;;;;4987700;28;20466;-60
2022/04/06 08:00:39;;;;;;;3.65;1.95;;;;;;;;;;5006168;28;20098;-59
2022/04/06 08:03:04;;;;;;;2.47;1.70;;;;;;;;;;5009402;28;20034;-60
2022/04/06 08:05:29;;;;;;;2.22;1.70;;;;;;;;;;5003922;28;20113;-61
2022/04/06 08:07:55;;;;;;;1.85;1.60;;;;;;;;;;4998886;28;21332;-60
2022/04/06 08:10:22;;;;;;;2.75;1.77;;;;;;;;;;5003423;28;20030;-60
2022/04/06 08:12:48;;;;;;;3.10;1.92;;;;;;;;;;5008277;28;20052;-60
2022/04/06 08:15:15;;;;;;;2.75;2.05;;;;;;;;;;5004926;28;20456;-60
2022/04/06 08:17:46;;;;;;;2.25;1.92;;;;;;;;;;5004555;28;20416;-60
2022/04/06 08:20:13;;;;;;;3.15;2.20;;;;;;;;;;5000398;28;20034;-60
2022/04/06 08:22:40;;;;;;;2.78;2.00;;;;;;;;;;5004844;28;20400;-60
2022/04/06 08:25:06;;;;;;;3.80;2.20;;;;;;;;;;4995192;28;20022;-61
2022/04/06 08:27:36;;;;;;;2.63;2.08;;;;;;;;;;4997884;28;20041;-63
2022/04/06 08:30:03;;;;;;;3.75;2.50;;;;;;;;;;5001136;28;20125;-60
2022/04/06 08:32:28;;;;;;;2.85;2.42;;;;;;;;;;5003097;28;20040;-60
2022/04/06 08:34:54;;;;;;;2.10;1.83;;;;;;;;;;4996722;28;20121;-60
2022/04/06 08:37:19;;;;;;;2.92;1.95;;;;;;;;;;4990924;28;20129;-61
2022/04/06 08:39:44;;;;;;;3.80;2.00;;;;;;;;;;4989999;28;20037;-61
2022/04/06 08:42:10;;;;;;;4.03;2.17;;;;;;;;;;5008564;28;20072;-60
2022/04/06 08:44:36;;;;;;;3.17;2.15;;;;;;;;;;5008800;28;20052;-61
2022/04/06 08:47:06;;;;;;;5.18;3.05;;;;;;;;;;5002032;28;20034;-60
2022/04/06 08:49:34;;;;;;;2.47;2.10;;;;;;;;;;4998850;28;20431;-60
2022/04/06 08:52:01;;;;;;;3.58;2.15;;;;;;;;;;4996966;28;20080;-59
2022/04/06 08:54:26;;;;;;;2.92;2.30;;;;;;;;;;4998767;28;20104;-59
2022/04/06 08:56:52;;;;;;;4.90;2.53;;;;;;;;;;5004186;28;20467;-60
2022/04/06 08:59:18;;;;;;;3.03;2.13;;;;;;;;;;5004062;28;20045;-61
2022/04/06 09:01:43;;;;;;;2.45;2.00;;;;;;;;;;5004384;28;20029;-60
2022/04/06 09:04:09;;;;;;;4.20;2.88;;;;;;;;;;5000849;28;20125;-59
2022/04/06 09:06:44;;;;;;;1.90;1.80;;;;;;;;;;5004504;28;20040;-60
2022/04/06 09:09:11;;;;;;;3.75;2.10;;;;;;;;;;5002617;28;20496;-61
2022/04/06 09:11:42;;;;;;;4.35;2.13;;;;;;;;;;4982940;28;20072;-60
2022/04/06 09:14:07;;;;;;;4.30;1.58;;;;;;;;;;4991521;28;20038;-60
2022/04/06 09:16:33;;;;;;;2.20;1.80;;;;;;;;;;4991760;28;20463;-62
2022/04/06 09:19:17;;;;;;;2.10;1.58;;;;;;;;;;5001806;28;20503;-60
2022/04/06 09:21:48;;;;;;;2.10;1.60;;;;;;;;;;4993695;28;20053;-60
2022/04/06 09:24:15;;;;;;;3.85;2.00;;;;;;;;;;5002524;28;20464;-61
2022/04/06 09:26:41;;;;;;;2.38;1.65;;;;;;;;;;5001969;28;20076;-59
2022/04/06 09:29:06;;;;;;;2.65;1.45;;;;;;;;;;4999866;28;20058;-59
2022/04/06 09:31:38;;;;;;;1.55;1.45;;;;;;;;;;4994638;28;20619;-61
2022/04/06 09:34:04;;;;;;;3.95;1.80;;;;;;;;;;4992570;28;20096;-61
2022/04/06 09:36:31;;;;;;;2.13;1.38;;;;;;;;;;4997362;28;20479;-61
2022/04/06 09:38:57;;;;;;;2.00;1.80;;;;;;;;;;4998485;28;20026;-61
2022/04/06 09:41:22;;;;;;;1.90;1.67;;;;;;;;;;5001008;28;20033;-60
2022/04/06 09:43:50;;;;;;;2.60;1.65;;;;;;;;;;4989747;28;20364;-61
2022/04/06 09:49:02;;;;;;;2.47;1.63;;;;;;;;;;5002900;28;20092;-61
2022/04/06 09:51:28;;;;;;;1.63;1.30;;;;;;;;;;5004621;28;20029;-60
2022/04/06 09:53:53;;;;;;;2.42;1.33;;;;;;;;;;5004017;28;20030;-60
2022/04/06 09:56:20;;;;;;;1.50;1.23;;;;;;;;;;5003704;28;20061;-61
2022/04/06 09:58:47;;;;;;;2.63;1.27;;;;;;;;;;5003782;28;20083;-61
2022/04/06 10:01:14;;;;;;;1.60;1.25;;;;;;;;;;5000376;28;20081;-61
2022/04/06 10:03:43;;;;;;;2.05;1.30;;;;;;;;;;5007200;28;20449;-61
2022/04/06 10:06:09;;;;;;;;;;;;;;;;;;4984295;28;20034;-60
2022/04/06 10:08:34;;;;;;;3.28;1.85;;;;;;;;;;5003560;28;20169;-62
2022/04/06 10:11:00;;;;;;;1.42;1.33;;;;;;;;;;5002331;28;20491;-60
2022/04/06 10:13:27;;;;;;;1.80;1.40;;;;;;;;;;5004130;28;20026;-60
2022/04/06 10:15:54;;;;;;;1.60;1.50;;;;;;;;;;4992600;28;20113;-60
2022/04/06 10:18:19;;;;;;;2.70;1.30;;;;;;;;;;5002789;28;20021;-60
2022/04/06 10:20:59;;;;;;;2.40;1.40;;;;;;;;;;5001681;28;20025;-64
2022/04/06 10:23:36;;;;;;;4.18;1.42;;;;;;;;;;5001600;28;20041;-60
2022/04/06 10:26:32;;;;;;;1.70;1.60;;;;;;;;;;5001673;28;20125;-61
2022/04/06 10:28:57;;;;;;;5.63;1.50;;;;;;;;;;5003448;28;20369;-59
2022/04/06 10:31:28;;;;;;;2.03;1.30;;;;;;;;;;4987910;28;20032;-60
2022/04/06 10:34:33;;;;;;;2.28;1.25;;;;;;;;;;5000780;28;20036;-60
2022/04/06 10:37:12;;;;;;;5.45;2.60;;;;;;;;;;4999641;28;20037;-60
2022/04/06 10:39:50;;;;;;;2.53;1.52;;;;;;;;;;5005527;28;20424;-60
2022/04/06 10:42:27;;;;;;;1.45;1.35;;;;;;;;;;4994058;28;20026;-62
2022/04/06 10:44:52;;;;;;;1.48;1.30;;;;;;;;;;4994642;28;20043;-61
2022/04/06 10:47:20;;;;;;;1.92;1.50;;;;;;;;;;4999751;28;20029;-60
2022/04/06 10:50:08;;;;;;;3.28;1.92;;;;;;;;;;4994032;28;20030;-60
2022/04/06 10:52:34;;;;;;;1.83;1.20;;;;;;;;;;4998831;28;20439;-62
2022/04/06 10:55:14;;;;;;;1.88;1.40;;;;;;;;;;4996342;28;20084;-61
2022/04/06 10:58:01;;;;;;;2.15;1.63;;;;;;;;;;4987198;28;20099;-61
2022/04/06 11:00:28;;;;;;;1.27;1.10;;;;;;;;;;4996444;28;20109;-60
2022/04/06 11:02:57;;;;;;;2.17;1.85;;;;;;;;;;4998562;28;20029;-63
2022/04/06 11:05:44;;;;;;;1.63;1.38;;;;;;;;;;4996925;28;20053;-60
2022/04/06 11:11:32;;;;;;;3.05;1.50;;;;;;;;;;5001845;28;20235;-61
2022/04/06 11:13:58;;;;;;;1.77;1.55;;;;;;;;;;4999364;28;20055;-60
2022/04/06 11:16:44;;;;;;;3.55;1.90;;;;;;;;;;5002432;28;20030;-60
2022/04/06 11:19:10;;;;;;;2.72;1.90;;;;;;;;;;4997237;28;20510;-60
2022/04/06 11:21:51;;;;;;;2.50;1.90;;;;;;;;;;4983303;28;20037;-61
2022/04/06 11:24:23;;;;;;;1.92;1.48;;;;;;;;;;4997049;28;20435;-60
2022/04/06 11:26:49;;;;;;;1.95;1.40;;;;;;;;;;4998612;28;20084;-61
2022/04/06 11:29:15;;;;;;;1.38;1.13;;;;;;;;;;4994012;28;20037;-60
2022/04/06 11:31:59;;;;;;;2.15;1.30;;;;;;;;;;4990920;28;20046;-59
2022/04/06 11:34:39;;;;;;;1.45;1.08;;;;;;;;;;4999309;28;20436;-60
2022/04/06 11:37:09;;;;;;;2.03;1.30;;;;;;;;;;4995834;28;20315;-58
2022/04/06 11:39:35;;;;;;;3.10;1.90;;;;;;;;;;4996207;28;20034;-62
2022/04/06 11:42:03;;;;;;;5.68;3.22;;;;;;;;;;4998098;28;20057;-61
2022/04/06 11:44:29;;;;;;;3.08;1.20;;;;;;;;;;4977509;28;20022;-61
2022/04/06 11:46:55;;;;;;;2.80;1.33;;;;;;;;;;4999854;28;20030;-60
2022/04/06 11:49:29;;;;;;;1.90;1.50;;;;;;;;;;5001707;28;20402;-61
2022/04/06 11:51:57;;;;;;;1.75;1.20;;;;;;;;;;4977912;28;20068;-60
2022/04/06 11:54:23;;;;;;;1.38;0.90;;;;;;;;;;4993516;28;20053;-61
2022/04/06 11:56:52;;;;;;;1.00;0.90;;;;;;;;;;4995862;28;20038;-61
2022/04/06 11:59:23;;;;;;;2.70;1.67;;;;;;;;;;4983425;28;20034;-61
2022/04/06 12:01:50;;;;;;;2.53;1.63;;;;;;;;;;5003060;28;20061;-60
2022/04/06 12:04:22;;;;;;;2.15;1.63;;;;;;;;;;5005629;28;20044;-60
2022/04/06 12:06:49;;;;;;;1.75;1.20;;;;;;;;;;5002972;28;20072;-61
2022/04/06 12:09:15;;;;;;;2.80;1.30;;;;;;;;;;4996444;28;20108;-61
2022/04/06 12:11:40;;;;;;;1.00;0.90;;;;;;;;;;5001669;28;20064;-61
2022/04/06 12:14:10;;;;;;;2.97;1.20;;;;;;;;;;5002344;28;20061;-61
2022/04/06 12:16:40;;;;;;;2.63;0.95;;;;;;;;;;4996148;28;20140;-60
2022/04/06 12:19:13;;;;;;;2.03;1.20;;;;;;;;;;4999359;28;20027;-62
2022/04/06 12:21:43;;;;;;;5.18;1.63;;;;;;;;;;4998243;28;20554;-61
2022/04/06 12:24:11;;;;;;;2.08;1.27;;;;;;;;;;4994676;28;20042;-60
2022/04/06 12:26:54;;;;;;;1.15;0.80;;;;;;;;;;4993833;28;20018;-59
2022/04/06 12:29:20;;;;;;;0.85;0.73;;;;;;;;;;4980869;28;20034;-60
2022/04/06 12:31:46;;;;;;;2.05;0.90;;;;;;;;;;5005654;28;20091;-63
2022/04/06 12:34:37;;;;;;;2.15;1.05;;;;;;;;;;4990274;28;20018;-62
2022/04/06 12:39:50;;;;;;;0.75;0.70;;;;;;;;;;5007497;28;20458;-61
2022/04/06 12:42:16;;;;;;;1.13;0.88;;;;;;;;;;4998769;28;20522;-61
2022/04/06 12:45:01;;;;;;;3.90;1.33;;;;;;;;;;5003670;28;20037;-61
2022/04/06 12:47:26;;;;;;;1.77;1.55;;;;;;;;;;4997738;28;20578;-61
2022/04/06 12:50:09;;;;;;;1.58;1.00;;;;;;;;;;4997240;28;20121;-61
2022/04/06 12:52:37;;;;;;;3.50;1.13;;;;;;;;;;4993151;28;20088;-62
2022/04/06 12:55:07;;;;;;;2.45;1.25;;;;;;;;;;4998099;28;20549;-62
2022/04/06 12:57:36;;;;;;;1.65;1.40;;;;;;;;;;4992578;28;20026;-61
2022/04/06 13:00:04;;;;;;;2.73;0.90;;;;;;;;;;4997890;28;20120;-60
2022/04/06 13:02:31;;;;;;;2.65;1.92;;;;;;;;;;4993001;28;20101;-60
2022/04/06 13:05:09;;;;;;;0.95;0.82;;;;;;;;;;4996611;28;20034;-61
2022/04/06 13:07:39;;;;;;;1.27;1.10;;;;;;;;;;4999747;28;20033;-62
2022/04/06 13:10:08;;;;;;;1.75;1.20;;;;;;;;;;4996347;28;20030;-61
2022/04/06 13:12:34;;;;;;;2.40;1.10;;;;;;;;;;4996663;28;20418;-62
2022/04/06 13:15:01;;;;;;;0.70;0.70;;;;;;;;;;4997795;28;20034;-62
2022/04/06 13:17:27;;;;;;;1.13;0.70;;;;;;;;;;4993894;28;20044;-62
2022/04/06 13:19:53;;;;;;;1.25;0.77;;;;;;;;;;4994861;28;20040;-63
2022/04/06 13:22:19;;;;;;;0.82;0.65;;;;;;;;;;4994985;28;20125;-62
2022/04/06 13:24:46;;;;;;;1.00;0.90;;;;;;;;;;4996331;28;20053;-61
2022/04/06 13:27:12;;;;;;;1.10;0.80;;;;;;;;;;4993773;28;20046;-61
2022/04/06 13:29:39;;;;;;;2.67;1.10;;;;;;;;;;5002400;28;20025;-62
2022/04/06 13:32:05;;;;;;;1.98;0.80;;;;;;;;;;4983431;28;20064;-61
2022/04/06 13:34:31;;;;;;;1.08;1.00;;;;;;;;;;4999808;28;20037;-63
2022/04/06 13:36:56;;;;;;;1.25;0.98;;;;;;;;;;5004458;28;20034;-61
2022/04/06 13:39:22;;;;;;;1.17;1.08;;;;;;;;;;4987721;28;20025;-60
2022/04/06 13:41:59;;;;;;;1.48;1.08;;;;;;;;;;5003907;28;20487;-60
2022/04/06 13:44:32;;;;;;;2.65;1.20;;;;;;;;;;5001578;28;20376;-61
2022/04/06 13:46:58;;;;;;;1.42;0.90;;;;;;;;;;5004003;28;20079;-61
2022/04/06 13:49:23;;;;;;;3.20;1.10;;;;;;;;;;5005336;28;20030;-61
2022/04/06 13:51:51;;;;;;;1.75;1.15;;;;;;;;;;5002626;28;20350;-61
2022/04/06 13:54:20;;;;;;;1.52;1.20;;;;;;;;;;5004893;28;20029;-63
2022/04/06 13:56:46;;;;;;;2.95;1.10;;;;;;;;;;4983019;28;20391;-60
2022/04/06 13:59:13;;;;;;;8.32;1.13;;;;;;;;;;5000839;28;20034;-62
2022/04/06 14:01:38;;;;;;;3.72;1.90;;;;;;;;;;5000509;28;20076;-61
2022/04/06 14:04:05;;;;;;;1.80;1.20;;;;;;;;;;4990211;28;20034;-62
2022/04/06 14:06:30;;;;;;;2.63;0.90;;;;;;;;;;4998170;28;20949;-60
2022/04/06 14:08:56;;;;;;;1.80;1.08;;;;;;;;;;4996339;28;20109;-60
2022/04/06 14:11:22;;;;;;;1.58;1.00;;;;;;;;;;5000042;28;20033;-63
2022/04/06 14:13:48;;;;;;;2.78;1.02;;;;;;;;;;5000618;28;20185;-60
2022/04/06 14:16:14;;;;;;;1.05;0.70;;;;;;;;;;4996190;28;20136;-60
2022/04/06 14:18:40;;;;;;;2.63;1.05;;;;;;;;;;4993172;28;20126;-60
2022/04/06 14:21:05;;;;;;;3.83;1.10;;;;;;;;;;4998666;28;20111;-60
2022/04/06 14:23:31;;;;;;;1.55;0.88;;;;;;;;;;4999825;28;20026;-60
2022/04/06 14:25:56;;;;;;;2.42;0.80;;;;;;;;;;5002387;28;20026;-60
2022/04/06 14:28:22;;;;;;;1.33;0.80;;;;;;;;;;4997335;28;20032;-60
2022/04/06 14:30:50;;;;;;;1.90;0.90;;;;;;;;;;4993429;28;20069;-60
2022/04/06 14:33:17;;;;;;;5.05;1.20;;;;;;;;;;4996269;28;20084;-61
2022/04/06 14:35:44;;;;;;;5.32;0.95;;;;;;;;;;4994407;28;20077;-60
2022/04/06 14:38:10;;;;;;;2.83;1.10;;;;;;;;;;4999729;28;20488;-60
2022/04/06 14:40:35;;;;;;;11.68;4.45;;;;;;;;;;4992272;28;20131;-60
2022/04/06 14:43:01;;;;;;;1.40;1.30;;;;;;;;;;4991998;28;20030;-59
2022/04/06 14:45:26;;;;;;;3.20;1.40;;;;;;;;;;4997425;28;20022;-60
2022/04/06 14:47:52;;;;;;;3.42;1.48;;;;;;;;;;4994874;28;20040;-62
2022/04/06 14:50:17;;;;;;;2.47;1.20;;;;;;;;;;5001556;28;20127;-60
2022/04/06 14:52:44;;;;;;;18.05;1.60;;;;;;;;;;5002385;28;20118;-59
2022/04/06 14:55:10;;;;;;;20.85;2.38;;;;;;;;;;4992625;28;20015;-59